Time;durP1;ratioP1;P1;durP2;ratioP2;P2;SDS_P1;SDS_P2;PMS_P1;PMS_P2;Temp;Humidity;BMP_temperature;BMP_pressure;BME280_temperature;BME280_humidity;BME280_pressure;Samples;Min_cycle;Max_cycle;Signal;HPM_P1;HPM_P2
2022/09/17 00:01:08;;;;;;;18.23;13.40;;;;;;;;;;4856312;29;20473;-76
2022/09/17 00:03:35;;;;;;;23.27;14.23;;;;;;;;;;4863246;29;21409;-77
2022/09/17 00:06:08;;;;;;;18.92;13.20;;;;;;;;;;4847212;29;20132;-76
2022/09/17 00:08:34;;;;;;;;;;;;;;;;;;4864865;29;20034;-76
2022/09/17 00:11:10;;;;;;;18.35;13.30;;;;;;;;;;4864514;29;20472;-76
2022/09/17 00:13:36;;;;;;;20.80;14.57;;;;;;;;;;4864542;29;20085;-76
2022/09/17 00:16:02;;;;;;;19.05;12.75;;;;;;;;;;4863168;29;20022;-76
2022/09/17 00:18:28;;;;;;;19.67;14.77;;;;;;;;;;4864228;29;20034;-76
2022/09/17 00:20:54;;;;;;;19.13;14.05;;;;;;;;;;4862566;29;20071;-76
2022/09/17 00:23:20;;;;;;;19.70;13.93;;;;;;;;;;4863394;29;20029;-76
2022/09/17 00:25:46;;;;;;;17.60;12.88;;;;;;;;;;4862780;29;20030;-76
2022/09/17 00:28:13;;;;;;;17.08;10.98;;;;;;;;;;4864902;29;20036;-76
2022/09/17 00:30:41;;;;;;;16.80;12.07;;;;;;;;;;4863420;29;20422;-76
2022/09/17 00:33:07;;;;;;;23.25;12.63;;;;;;;;;;4864910;29;20036;-76
2022/09/17 00:35:33;;;;;;;18.52;12.38;;;;;;;;;;4864465;29;20025;-76
2022/09/17 00:37:59;;;;;;;16.48;10.98;;;;;;;;;;4862817;29;20029;-77
2022/09/17 00:40:26;;;;;;;18.88;11.25;;;;;;;;;;4863367;29;20093;-77
2022/09/17 00:42:52;;;;;;;22.48;11.75;;;;;;;;;;4863045;29;20032;-77
2022/09/17 00:45:18;;;;;;;20.25;12.45;;;;;;;;;;4863643;29;20028;-76
2022/09/17 00:47:46;;;;;;;18.25;12.10;;;;;;;;;;4862406;29;20081;-76
2022/09/17 00:50:15;;;;;;;17.17;11.98;;;;;;;;;;4858271;29;20037;-76
2022/09/17 00:52:46;;;;;;;16.67;10.75;;;;;;;;;;4861773;29;20029;-77
2022/09/17 00:55:23;;;;;;;13.82;9.50;;;;;;;;;;4863599;29;20062;-75
2022/09/17 00:57:52;;;;;;;13.73;9.05;;;;;;;;;;4861279;29;20037;-77
2022/09/17 01:00:18;;;;;;;14.30;9.18;;;;;;;;;;4866108;29;20408;-77
2022/09/17 01:02:45;;;;;;;13.07;8.80;;;;;;;;;;4865394;29;20034;-76
2022/09/17 01:05:11;;;;;;;17.52;7.93;;;;;;;;;;4865461;29;20026;-77
2022/09/17 01:07:56;;;;;;;16.20;8.93;;;;;;;;;;4862759;29;20085;-76
2022/09/17 01:10:28;;;;;;;11.77;7.07;;;;;;;;;;4862128;29;20038;-77
2022/09/17 01:13:13;;;;;;;10.07;6.75;;;;;;;;;;4863793;29;20380;-76
2022/09/17 01:15:58;;;;;;;16.02;7.25;;;;;;;;;;4863374;29;20556;-77
2022/09/17 01:18:32;;;;;;;10.73;6.80;;;;;;;;;;4863969;29;20026;-76
2022/09/17 01:21:06;;;;;;;11.93;6.80;;;;;;;;;;4855817;29;20048;-76
2022/09/17 01:23:51;;;;;;;9.07;6.70;;;;;;;;;;4863390;29;20028;-77
2022/09/17 01:26:17;;;;;;;9.98;6.35;;;;;;;;;;4863155;29;20064;-75
2022/09/17 01:29:02;;;;;;;11.20;6.15;;;;;;;;;;4862763;29;20021;-76
2022/09/17 01:31:34;;;;;;;9.93;5.80;;;;;;;;;;4860389;29;20034;-76
2022/09/17 01:34:03;;;;;;;8.77;5.82;;;;;;;;;;4861761;29;20108;-76
2022/09/17 01:36:47;;;;;;;9.25;6.20;;;;;;;;;;4861179;29;20029;-77
2022/09/17 01:39:13;;;;;;;13.00;7.07;;;;;;;;;;4853258;29;20037;-77
2022/09/17 01:41:51;;;;;;;7.55;5.20;;;;;;;;;;4858609;29;20057;-76
2022/09/17 01:44:22;;;;;;;7.40;4.88;;;;;;;;;;4860672;29;20037;-76
2022/09/17 01:46:58;;;;;;;9.20;4.80;;;;;;;;;;4849021;29;20497;-76
2022/09/17 01:49:25;;;;;;;11.40;5.47;;;;;;;;;;4862389;29;20049;-76
2022/09/17 01:51:51;;;;;;;10.10;5.47;;;;;;;;;;4857180;29;20040;-76
2022/09/17 01:54:22;;;;;;;9.30;5.30;;;;;;;;;;4854633;29;20025;-76
2022/09/17 01:56:51;;;;;;;7.85;4.72;;;;;;;;;;4862308;29;20033;-75
2022/09/17 01:59:22;;;;;;;5.80;4.32;;;;;;;;;;4862487;29;20030;-76
2022/09/17 02:01:51;;;;;;;7.82;4.57;;;;;;;;;;4860955;29;20028;-76
2022/09/17 02:04:30;;;;;;;5.18;3.63;;;;;;;;;;4861614;29;20537;-76
2022/09/17 02:06:58;;;;;;;6.45;3.50;;;;;;;;;;4861788;29;20026;-76
2022/09/17 02:09:28;;;;;;;6.95;4.15;;;;;;;;;;4864953;29;20092;-75
2022/09/17 02:11:57;;;;;;;7.03;4.25;;;;;;;;;;4864736;29;20022;-75
2022/09/17 02:14:34;;;;;;;6.95;4.28;;;;;;;;;;4862938;29;20037;-76
2022/09/17 02:17:02;;;;;;;6.22;4.30;;;;;;;;;;4864919;29;20021;-76
2022/09/17 02:19:31;;;;;;;8.45;4.40;;;;;;;;;;4863062;29;20555;-77
2022/09/17 02:22:17;;;;;;;8.65;4.03;;;;;;;;;;4865082;29;20031;-76
2022/09/17 02:24:55;;;;;;;8.15;5.18;;;;;;;;;;4865932;29;20034;-76
2022/09/17 02:27:27;;;;;;;9.35;4.45;;;;;;;;;;4850955;29;20454;-76
2022/09/17 02:29:54;;;;;;;7.72;4.40;;;;;;;;;;4866269;29;20026;-76
2022/09/17 02:32:20;;;;;;;6.95;4.47;;;;;;;;;;4863990;29;20500;-76
2022/09/17 02:34:46;;;;;;;7.72;4.78;;;;;;;;;;4863570;29;20041;-76
2022/09/17 02:37:13;;;;;;;8.35;5.07;;;;;;;;;;4867555;29;20021;-76
2022/09/17 02:39:41;;;;;;;6.65;4.88;;;;;;;;;;4864574;29;20061;-76
2022/09/17 02:42:16;;;;;;;8.07;5.03;;;;;;;;;;4864748;29;20036;-76
2022/09/17 02:44:53;;;;;;;9.25;5.10;;;;;;;;;;4864801;29;20365;-76
2022/09/17 02:47:32;;;;;;;9.90;5.72;;;;;;;;;;4863798;29;20113;-76
2022/09/17 02:50:02;;;;;;;9.23;6.13;;;;;;;;;;4865159;29;20090;-76
2022/09/17 02:52:30;;;;;;;8.32;6.20;;;;;;;;;;4862352;29;20037;-76
2022/09/17 02:55:03;;;;;;;12.52;6.25;;;;;;;;;;4864911;29;20038;-76
2022/09/17 02:57:58;;;;;;;10.02;6.30;;;;;;;;;;4865563;29;20067;-77
2022/09/17 03:00:27;;;;;;;9.73;5.70;;;;;;;;;;4778369;30;20059;-76
2022/09/17 03:02:57;;;;;;;9.48;5.15;;;;;;;;;;4777841;30;20149;-75
2022/09/17 03:05:24;;;;;;;10.90;5.70;;;;;;;;;;4777883;30;20066;-76
2022/09/17 03:07:51;;;;;;;7.15;5.38;;;;;;;;;;4776734;30;20032;-76
2022/09/17 03:10:18;;;;;;;10.65;5.88;;;;;;;;;;4779609;30;20063;-76
2022/09/17 03:12:44;;;;;;;10.45;6.30;;;;;;;;;;4776553;30;20031;-76
2022/09/17 03:15:10;;;;;;;10.38;6.00;;;;;;;;;;4774618;30;20036;-76
2022/09/17 03:17:37;;;;;;;9.80;6.53;;;;;;;;;;4764039;30;20396;-76
2022/09/17 03:20:03;;;;;;;13.60;6.97;;;;;;;;;;4782819;30;20575;-76
2022/09/17 03:22:29;;;;;;;11.40;7.38;;;;;;;;;;4777346;30;20215;-76
2022/09/17 03:24:56;;;;;;;11.10;7.40;;;;;;;;;;4774120;30;20040;-76
2022/09/17 03:27:22;;;;;;;10.70;7.47;;;;;;;;;;4774436;30;20031;-76
2022/09/17 03:29:48;;;;;;;10.15;7.13;;;;;;;;;;4783668;30;20047;-76
2022/09/17 03:32:14;;;;;;;13.55;7.60;;;;;;;;;;4774433;30;20093;-75
2022/09/17 03:34:40;;;;;;;13.85;7.10;;;;;;;;;;4772185;30;20048;-76
2022/09/17 03:37:06;;;;;;;12.93;7.93;;;;;;;;;;4837759;29;20489;-76
2022/09/17 03:39:32;;;;;;;11.52;7.80;;;;;;;;;;4864482;29;20041;-75
2022/09/17 03:41:59;;;;;;;12.48;8.20;;;;;;;;;;4865160;29;20022;-76
2022/09/17 03:44:25;;;;;;;12.60;8.80;;;;;;;;;;4865412;29;20048;-76
2022/09/17 03:46:51;;;;;;;14.55;9.63;;;;;;;;;;4868114;29;20067;-77
2022/09/17 03:49:17;;;;;;;13.77;8.93;;;;;;;;;;4860854;29;20137;-76
2022/09/17 03:51:43;;;;;;;13.77;8.75;;;;;;;;;;4861029;29;20025;-76
2022/09/17 03:54:09;;;;;;;15.95;9.27;;;;;;;;;;4861976;29;20140;-75
2022/09/17 03:56:35;;;;;;;18.02;9.40;;;;;;;;;;4865083;29;20033;-76
2022/09/17 03:59:01;;;;;;;16.40;9.73;;;;;;;;;;4864313;29;20045;-76
2022/09/17 04:01:28;;;;;;;15.85;9.52;;;;;;;;;;4864363;29;20030;-76
2022/09/17 04:03:54;;;;;;;13.45;9.63;;;;;;;;;;4863779;29;20030;-77
2022/09/17 04:06:20;;;;;;;16.00;9.00;;;;;;;;;;4862437;29;20499;-76
2022/09/17 04:08:46;;;;;;;12.95;9.60;;;;;;;;;;4863986;29;20025;-76
2022/09/17 04:11:12;;;;;;;13.02;9.77;;;;;;;;;;4863318;29;20068;-76
2022/09/17 04:13:38;;;;;;;14.80;9.93;;;;;;;;;;4863161;29;20025;-77
2022/09/17 04:16:05;;;;;;;13.15;9.77;;;;;;;;;;4863846;29;20073;-76
2022/09/17 04:18:31;;;;;;;16.00;9.90;;;;;;;;;;4863406;29;20029;-77
2022/09/17 04:20:57;;;;;;;15.00;9.75;;;;;;;;;;4860264;29;20500;-76
2022/09/17 04:23:23;;;;;;;11.18;9.20;;;;;;;;;;4863672;29;20434;-77
2022/09/17 04:25:49;;;;;;;13.25;9.52;;;;;;;;;;4862183;29;20030;-76
2022/09/17 04:28:15;;;;;;;14.43;9.63;;;;;;;;;;4864277;29;20033;-76
2022/09/17 04:30:44;;;;;;;17.70;10.48;;;;;;;;;;4863380;29;20022;-76
2022/09/17 04:33:11;;;;;;;19.05;12.20;;;;;;;;;;4859153;29;20480;-76
2022/09/17 04:35:37;;;;;;;17.00;10.95;;;;;;;;;;4864436;29;20037;-76
2022/09/17 04:38:04;;;;;;;14.13;10.18;;;;;;;;;;4866587;29;20028;-76
2022/09/17 04:40:30;;;;;;;17.83;10.07;;;;;;;;;;4864865;29;20105;-77
2022/09/17 04:42:58;;;;;;;13.82;9.93;;;;;;;;;;4845320;29;20040;-76
2022/09/17 04:45:24;;;;;;;13.98;9.75;;;;;;;;;;4848329;29;20469;-76
2022/09/17 04:47:50;;;;;;;15.18;10.43;;;;;;;;;;4863019;29;20504;-76
2022/09/17 04:50:19;;;;;;;17.50;11.20;;;;;;;;;;4858718;29;20065;-76
2022/09/17 04:52:46;;;;;;;16.45;10.95;;;;;;;;;;4857498;29;20071;-76
2022/09/17 04:55:13;;;;;;;12.63;8.98;;;;;;;;;;4864177;29;20483;-76
2022/09/17 04:57:45;;;;;;;15.00;10.55;;;;;;;;;;4860326;29;20026;-77
2022/09/17 05:00:12;;;;;;;15.48;10.77;;;;;;;;;;4867908;29;20505;-77
2022/09/17 05:02:47;;;;;;;14.18;9.50;;;;;;;;;;5074083;27;1663999;-77
2022/09/17 05:05:13;;;;;;;17.17;10.35;;;;;;;;;;5117358;27;20031;-77
2022/09/17 05:07:39;;;;;;;17.50;9.65;;;;;;;;;;5128069;28;20023;-77
2022/09/17 05:10:06;;;;;;;15.43;10.52;;;;;;;;;;5107615;28;20036;-84
2022/09/17 05:12:57;;;;;;;11.77;9.55;;;;;;;;;;5118962;28;20027;-87
2022/09/17 05:15:26;;;;;;;15.45;9.70;;;;;;;;;;5104963;28;20020;-83
2022/09/17 05:17:52;;;;;;;13.60;9.98;;;;;;;;;;5121907;28;20027;-76
2022/09/17 05:20:19;;;;;;;16.45;10.35;;;;;;;;;;5113500;28;20372;-76
2022/09/17 05:22:46;;;;;;;12.35;8.95;;;;;;;;;;5112653;28;20059;-77
2022/09/17 05:25:12;;;;;;;14.50;9.32;;;;;;;;;;5110858;28;20015;-77
2022/09/17 05:27:39;;;;;;;14.63;9.93;;;;;;;;;;5119926;28;20031;-77
2022/09/17 05:30:05;;;;;;;14.68;9.98;;;;;;;;;;5114845;28;20489;-76
2022/09/17 05:32:32;;;;;;;12.48;9.90;;;;;;;;;;5116678;28;20078;-77
2022/09/17 05:34:58;;;;;;;12.90;10.30;;;;;;;;;;5119229;28;20031;-77
2022/09/17 05:37:24;;;;;;;13.95;10.45;;;;;;;;;;5118598;28;20015;-76
2022/09/17 05:39:51;;;;;;;14.60;10.10;;;;;;;;;;5116152;28;20027;-76
2022/09/17 05:42:17;;;;;;;14.55;11.02;;;;;;;;;;5115587;28;20381;-76
2022/09/17 05:44:43;;;;;;;18.55;10.60;;;;;;;;;;5118638;28;20384;-77
2022/09/17 05:47:09;;;;;;;16.67;10.70;;;;;;;;;;5115245;28;20454;-82
2022/09/17 05:49:35;;;;;;;17.67;11.25;;;;;;;;;;5109544;28;20128;-79
2022/09/17 05:52:02;;;;;;;17.23;12.10;;;;;;;;;;5117601;28;20023;-78
2022/09/17 05:54:28;;;;;;;12.95;10.32;;;;;;;;;;5111707;27;20046;-80
2022/09/17 05:56:55;;;;;;;15.00;10.93;;;;;;;;;;5105140;28;20437;-80
2022/09/17 05:59:21;;;;;;;12.48;10.02;;;;;;;;;;5108723;28;20027;-80
2022/09/17 06:01:48;;;;;;;15.55;10.95;;;;;;;;;;5111624;28;20047;-89
2022/09/17 06:04:14;;;;;;;15.38;10.50;;;;;;;;;;5123054;27;20027;-88
2022/09/17 06:06:40;;;;;;;13.65;10.65;;;;;;;;;;5113474;28;20023;-87
2022/09/17 06:09:07;;;;;;;17.17;11.68;;;;;;;;;;5108188;28;20035;-89
2022/09/17 06:11:33;;;;;;;14.18;10.73;;;;;;;;;;5111870;28;20392;-89
2022/09/17 06:13:59;;;;;;;13.90;10.93;;;;;;;;;;5082575;28;20024;-89
2022/09/17 06:16:26;;;;;;;15.70;11.70;;;;;;;;;;5098975;28;20027;-84
2022/09/17 06:18:52;;;;;;;14.65;11.60;;;;;;;;;;5111189;28;20028;-86
2022/09/17 06:21:20;;;;;;;13.98;10.95;;;;;;;;;;5093565;28;20039;-88
2022/09/17 06:23:46;;;;;;;13.35;10.52;;;;;;;;;;5095859;28;20020;-91
2022/09/17 06:26:13;;;;;;;16.75;10.95;;;;;;;;;;5106891;28;20059;-89
2022/09/17 06:28:39;;;;;;;12.80;10.57;;;;;;;;;;5081902;28;20021;-90
2022/09/17 06:31:06;;;;;;;13.30;10.27;;;;;;;;;;5094107;28;20103;-88
2022/09/17 06:33:33;;;;;;;14.32;10.93;;;;;;;;;;5098107;28;20032;-83
2022/09/17 06:36:01;;;;;;;16.52;10.98;;;;;;;;;;5099582;28;20480;-79
2022/09/17 06:38:27;;;;;;;15.98;11.20;;;;;;;;;;5093094;28;20031;-84
2022/09/17 06:40:53;;;;;;;14.00;10.50;;;;;;;;;;5096421;28;20139;-79
2022/09/17 06:43:20;;;;;;;14.50;10.88;;;;;;;;;;5094160;28;20035;-79
2022/09/17 06:45:53;;;;;;;13.95;10.38;;;;;;;;;;5091437;28;20028;-82
2022/09/17 06:48:21;;;;;;;16.08;10.85;;;;;;;;;;5092897;28;20071;-89
2022/09/17 06:50:47;;;;;;;18.40;11.85;;;;;;;;;;5091752;28;20101;-89
2022/09/17 06:53:13;;;;;;;14.25;10.90;;;;;;;;;;5094312;28;20038;-88
2022/09/17 06:55:39;;;;;;;15.88;11.07;;;;;;;;;;5108177;28;20054;-90
2022/09/17 06:58:05;;;;;;;14.05;11.77;;;;;;;;;;5094523;28;20031;-89
2022/09/17 07:00:35;;;;;;;15.40;11.35;;;;;;;;;;5103906;28;20074;-89
2022/09/17 07:03:02;;;;;;;15.50;11.55;;;;;;;;;;5107518;28;20055;-86
2022/09/17 07:05:28;;;;;;;15.07;11.75;;;;;;;;;;5087473;28;20177;-87
2022/09/17 07:07:55;;;;;;;18.10;12.05;;;;;;;;;;5093002;28;20032;-78
2022/09/17 07:10:25;;;;;;;16.27;11.80;;;;;;;;;;5092647;28;20031;-88
2022/09/17 07:12:52;;;;;;;15.68;12.43;;;;;;;;;;5097802;28;20077;-83
2022/09/17 07:15:18;;;;;;;16.05;12.13;;;;;;;;;;5108651;28;20099;-79
2022/09/17 07:17:45;;;;;;;17.65;12.75;;;;;;;;;;5113438;28;20388;-88
2022/09/17 07:20:12;;;;;;;13.70;11.60;;;;;;;;;;5100430;28;20020;-87
2022/09/17 07:22:38;;;;;;;15.75;11.98;;;;;;;;;;5095000;28;20042;-87
2022/09/17 07:25:04;;;;;;;15.73;11.25;;;;;;;;;;5097581;28;20032;-85
2022/09/17 07:27:31;;;;;;;14.10;10.90;;;;;;;;;;5106229;27;20049;-88
2022/09/17 07:29:57;;;;;;;13.57;11.00;;;;;;;;;;5100027;28;20067;-87
2022/09/17 07:32:24;;;;;;;17.50;11.23;;;;;;;;;;5098415;28;20020;-87
2022/09/17 07:34:50;;;;;;;15.90;11.63;;;;;;;;;;5103524;28;20036;-85
2022/09/17 07:37:16;;;;;;;13.63;11.00;;;;;;;;;;5089608;28;20558;-90
2022/09/17 07:39:43;;;;;;;14.10;11.07;;;;;;;;;;5089521;28;20084;-77
2022/09/17 07:42:09;;;;;;;16.30;11.20;;;;;;;;;;5093287;28;20500;-76
2022/09/17 07:44:35;;;;;;;13.80;10.40;;;;;;;;;;5099739;28;20024;-87
2022/09/17 07:47:02;;;;;;;16.10;12.35;;;;;;;;;;5092533;28;20039;-74
2022/09/17 07:49:28;;;;;;;21.55;15.13;;;;;;;;;;5085727;28;20484;-75
2022/09/17 07:51:54;;;;;;;14.13;10.80;;;;;;;;;;5087032;28;20119;-83
2022/09/17 07:54:20;;;;;;;11.90;9.75;;;;;;;;;;5089333;28;20024;-76
2022/09/17 07:56:46;;;;;;;13.05;10.45;;;;;;;;;;5090442;28;20039;-75
2022/09/17 07:59:12;;;;;;;12.18;9.05;;;;;;;;;;5086854;28;20024;-82
2022/09/17 08:01:39;;;;;;;13.40;9.63;;;;;;;;;;5082404;28;20052;-80
2022/09/17 08:04:05;;;;;;;12.52;8.57;;;;;;;;;;5095695;28;20023;-74
2022/09/17 08:06:31;;;;;;;11.93;9.15;;;;;;;;;;5093379;28;20086;-84
2022/09/17 08:08:59;;;;;;;12.35;9.10;;;;;;;;;;5086428;28;20039;-81
2022/09/17 08:11:26;;;;;;;12.55;8.77;;;;;;;;;;5083836;28;20425;-77
2022/09/17 08:13:53;;;;;;;11.48;8.32;;;;;;;;;;5104730;28;20051;-74
2022/09/17 08:16:19;;;;;;;9.95;8.07;;;;;;;;;;5099446;28;20427;-74
2022/09/17 08:18:46;;;;;;;9.48;8.27;;;;;;;;;;5095673;28;20024;-77
2022/09/17 08:21:14;;;;;;;8.85;7.20;;;;;;;;;;5088741;28;20040;-83
2022/09/17 08:23:40;;;;;;;10.52;7.28;;;;;;;;;;5101456;28;20016;-87
2022/09/17 08:26:14;;;;;;;9.77;7.85;;;;;;;;;;5108749;28;20027;-75
2022/09/17 08:28:43;;;;;;;10.60;7.93;;;;;;;;;;5093019;28;20095;-75
2022/09/17 08:31:14;;;;;;;10.63;8.40;;;;;;;;;;5082706;28;20029;-75
2022/09/17 08:33:41;;;;;;;14.15;8.15;;;;;;;;;;5096678;28;20035;-76
2022/09/17 08:36:08;;;;;;;9.52;8.02;;;;;;;;;;5090426;28;20031;-75
2022/09/17 08:38:38;;;;;;;12.05;8.60;;;;;;;;;;5092051;28;20031;-75
2022/09/17 08:41:10;;;;;;;9.38;7.43;;;;;;;;;;5097660;28;20032;-76
2022/09/17 08:43:56;;;;;;;10.07;7.88;;;;;;;;;;5104852;28;20028;-78
2022/09/17 08:46:24;;;;;;;15.80;8.25;;;;;;;;;;5091954;28;20023;-80
2022/09/17 08:49:01;;;;;;;15.35;8.38;;;;;;;;;;5094441;28;20392;-81
2022/09/17 08:52:03;;;;;;;12.70;8.85;;;;;;;;;;5086900;28;20109;-85
2022/09/17 08:54:36;;;;;;;11.73;7.57;;;;;;;;;;5010009;28;20026;-79
2022/09/17 08:57:20;;;;;;;12.43;7.60;;;;;;;;;;5010252;28;20045;-77
2022/09/17 08:59:56;;;;;;;9.43;7.03;;;;;;;;;;5008007;28;20069;-80
2022/09/17 09:02:35;;;;;;;8.75;7.20;;;;;;;;;;5021457;28;20053;-75
2022/09/17 09:05:06;;;;;;;9.60;6.95;;;;;;;;;;5016460;28;20561;-74
2022/09/17 09:07:37;;;;;;;10.27;7.15;;;;;;;;;;5005866;28;20021;-74
2022/09/17 09:10:12;;;;;;;9.73;7.45;;;;;;;;;;5022992;28;20237;-74
2022/09/17 09:12:43;;;;;;;12.45;8.18;;;;;;;;;;5018477;28;20388;-74
2022/09/17 09:15:46;;;;;;;11.48;7.30;;;;;;;;;;5022605;28;20037;-75
2022/09/17 09:18:22;;;;;;;7.55;6.40;;;;;;;;;;4965115;28;20497;-74
2022/09/17 09:20:54;;;;;;;8.93;6.28;;;;;;;;;;4966508;28;20043;-75
2022/09/17 09:23:26;;;;;;;10.07;6.82;;;;;;;;;;4967538;28;20032;-73
2022/09/17 09:25:54;;;;;;;7.82;6.20;;;;;;;;;;4957652;28;20035;-74
2022/09/17 09:28:29;;;;;;;8.57;6.30;;;;;;;;;;4996381;28;20079;-73
2022/09/17 09:39:52;;;;;;;9.60;6.50;;;;;;;;;;5210770;22;20375;-82
2022/09/17 09:51:13;;;;;;;11.75;6.82;;;;;;;;;;5072837;23;20075;-80
2022/09/17 09:56:27;;;;;;;10.07;6.25;;;;;;;;;;5126141;23;20046;-80
2022/09/17 09:58:54;;;;;;;9.45;6.57;;;;;;;;;;5000324;28;20030;-75
2022/09/17 10:01:20;;;;;;;7.55;5.93;;;;;;;;;;4997003;28;20038;-75
2022/09/17 10:03:47;;;;;;;7.70;6.00;;;;;;;;;;4994276;28;20029;-76
2022/09/17 10:06:14;;;;;;;9.27;5.30;;;;;;;;;;5005283;28;20092;-76
2022/09/17 10:08:41;;;;;;;6.38;4.82;;;;;;;;;;4977022;28;20023;-76
2022/09/17 10:11:10;;;;;;;7.57;5.05;;;;;;;;;;4991503;28;20023;-77
2022/09/17 10:13:36;;;;;;;5.63;4.47;;;;;;;;;;4988599;28;20143;-74
2022/09/17 10:24:21;;;;;;;8.15;4.88;;;;;;;;;;5515912;23;20058;-80
2022/09/17 10:27:15;;;;;;;8.77;4.60;;;;;;;;;;4974108;28;20070;-80
2022/09/17 10:29:48;;;;;;;5.70;4.38;;;;;;;;;;5014361;28;20022;-79
2022/09/17 10:32:21;;;;;;;5.97;4.40;;;;;;;;;;4993470;28;20027;-78
2022/09/17 10:35:03;;;;;;;6.32;4.75;;;;;;;;;;5000161;28;20046;-74
2022/09/17 10:37:43;;;;;;;6.85;5.05;;;;;;;;;;4994701;28;21902;-74
2022/09/17 10:40:26;;;;;;;7.40;4.90;;;;;;;;;;4996479;28;20033;-75
2022/09/17 10:43:10;;;;;;;5.40;4.23;;;;;;;;;;4993908;28;20039;-74
2022/09/17 10:45:38;;;;;;;7.18;5.18;;;;;;;;;;4995312;28;20035;-74
2022/09/17 10:48:05;;;;;;;8.20;5.40;;;;;;;;;;4988804;28;20018;-75
2022/09/17 10:50:34;;;;;;;7.38;5.75;;;;;;;;;;4989670;28;20026;-75
2022/09/17 10:53:01;;;;;;;8.73;5.40;;;;;;;;;;4995728;28;20125;-75
2022/09/17 10:55:47;;;;;;;7.03;5.03;;;;;;;;;;4998337;28;20381;-79
2022/09/17 10:58:53;;;;;;;9.48;5.45;;;;;;;;;;5009338;28;20050;-78
2022/09/17 11:01:48;;;;;;;8.93;5.72;;;;;;;;;;4975818;28;20043;-77
2022/09/17 11:04:39;;;;;;;9.13;5.63;;;;;;;;;;4975071;29;20039;-80
2022/09/17 11:07:36;;;;;;;7.30;4.70;;;;;;;;;;4983915;28;20030;-81
2022/09/17 11:10:22;;;;;;;7.72;5.00;;;;;;;;;;4937463;29;20110;-78
2022/09/17 11:12:57;;;;;;;7.43;5.38;;;;;;;;;;4955262;28;20027;-76
2022/09/17 11:15:31;;;;;;;6.45;5.40;;;;;;;;;;4949013;29;20055;-76
2022/09/17 11:18:27;;;;;;;6.25;5.30;;;;;;;;;;4955043;28;20027;-76
2022/09/17 11:30:59;;;;;;;7.05;5.47;;;;;;;;;;5019631;28;20127;-78
2022/09/17 11:39:11;;;;;;;10.73;6.90;;;;;;;;;;5489972;23;20058;-83
2022/09/17 11:42:16;;;;;;;9.35;6.63;;;;;;;;;;4906216;29;20056;-81
2022/09/17 11:45:13;;;;;;;8.52;6.25;;;;;;;;;;4911320;29;20120;-75
2022/09/17 11:47:46;;;;;;;10.15;5.88;;;;;;;;;;4912466;29;20033;-77
2022/09/17 11:50:24;;;;;;;7.47;5.32;;;;;;;;;;4916697;29;20084;-76
2022/09/17 11:53:04;;;;;;;8.32;5.97;;;;;;;;;;4913019;29;20041;-76
2022/09/17 11:55:35;;;;;;;7.43;5.55;;;;;;;;;;4920929;29;20031;-78
2022/09/17 11:58:23;;;;;;;7.60;5.63;;;;;;;;;;4918687;29;20094;-82
2022/09/17 12:01:32;;;;;;;8.05;5.00;;;;;;;;;;4912484;29;20096;-81
2022/09/17 12:06:44;;;;;;;7.53;5.20;;;;;;;;;;5416749;23;20053;-80
2022/09/17 12:09:13;;;;;;;6.35;4.20;;;;;;;;;;4960609;29;20043;-76
2022/09/17 12:11:45;;;;;;;6.50;4.18;;;;;;;;;;4967954;28;20039;-78
2022/09/17 12:32:30;;;;;;;7.22;4.40;;;;;;;;;;5180154;23;20054;-75
2022/09/17 12:37:53;;;;;;;8.52;5.20;;;;;;;;;;5409025;23;20106;-79
2022/09/17 12:40:44;;;;;;;6.50;4.63;;;;;;;;;;4987872;28;20055;-74
2022/09/17 12:46:12;;;;;;;6.45;4.60;;;;;;;;;;5201152;23;20030;-73
2022/09/17 12:48:56;;;;;;;7.88;4.57;;;;;;;;;;4968299;28;20037;-73
2022/09/17 12:51:28;;;;;;;7.20;5.50;;;;;;;;;;4963594;28;20034;-73
2022/09/17 12:53:55;;;;;;;7.57;6.00;;;;;;;;;;4972916;28;20042;-80
2022/09/17 12:56:40;;;;;;;10.20;6.72;;;;;;;;;;4989115;28;20027;-80
2022/09/17 12:59:14;;;;;;;10.23;7.70;;;;;;;;;;4963080;28;20035;-74
2022/09/17 13:01:52;;;;;;;13.32;8.77;;;;;;;;;;4981264;28;20114;-72
2022/09/17 13:04:22;;;;;;;12.88;8.85;;;;;;;;;;4990891;28;20007;-74
2022/09/17 13:07:07;;;;;;;9.00;7.90;;;;;;;;;;4977967;28;20045;-79
2022/09/17 13:09:33;;;;;;;11.02;8.65;;;;;;;;;;4986098;28;20020;-73
2022/09/17 13:11:59;;;;;;;13.88;9.63;;;;;;;;;;4973916;29;20023;-72
2022/09/17 13:14:47;;;;;;;15.38;9.77;;;;;;;;;;4984777;23;20038;-74
2022/09/17 13:17:38;;;;;;;14.15;9.82;;;;;;;;;;4977607;28;20456;-76
2022/09/17 13:20:13;;;;;;;16.25;9.68;;;;;;;;;;4982754;28;20035;-74
2022/09/17 13:22:47;;;;;;;12.13;9.60;;;;;;;;;;4991564;28;20093;-75
2022/09/17 13:25:14;;;;;;;15.65;9.90;;;;;;;;;;4983407;28;20023;-79
2022/09/17 13:27:41;;;;;;;14.50;9.80;;;;;;;;;;5002090;28;20048;-72
2022/09/17 13:30:09;;;;;;;14.18;10.27;;;;;;;;;;5002262;28;20030;-73
2022/09/17 13:32:36;;;;;;;11.40;8.60;;;;;;;;;;4999585;28;20010;-73
2022/09/17 13:35:11;;;;;;;12.95;8.90;;;;;;;;;;5003552;28;20027;-73
2022/09/17 13:37:37;;;;;;;11.25;9.10;;;;;;;;;;4999028;28;20050;-73
2022/09/17 13:40:05;;;;;;;14.07;10.48;;;;;;;;;;4999815;28;20034;-75
2022/09/17 13:42:42;;;;;;;12.57;9.80;;;;;;;;;;4997868;28;20030;-74
2022/09/17 13:45:10;;;;;;;28.33;17.77;;;;;;;;;;4999082;28;20023;-77
2022/09/17 13:47:54;;;;;;;21.52;14.55;;;;;;;;;;4982971;28;20105;-77
2022/09/17 13:50:46;;;;;;;14.15;11.13;;;;;;;;;;4962181;28;20507;-77
2022/09/17 13:53:41;;;;;;;15.13;10.50;;;;;;;;;;4916124;29;20036;-80
2022/09/17 13:56:30;;;;;;;15.02;10.27;;;;;;;;;;4906019;29;20043;-79
2022/09/17 13:59:21;;;;;;;13.63;11.23;;;;;;;;;;4903025;29;20017;-80
2022/09/17 14:02:30;;;;;;;31.88;20.92;;;;;;;;;;4904943;29;20036;-79
2022/09/17 14:05:19;;;;;;;29.83;19.80;;;;;;;;;;4895304;29;20044;-78
2022/09/17 14:07:46;;;;;;;21.77;15.95;;;;;;;;;;4886793;29;20168;-76
2022/09/17 14:10:15;;;;;;;13.77;9.88;;;;;;;;;;4898310;29;20051;-76
2022/09/17 14:13:02;;;;;;;14.25;10.23;;;;;;;;;;4895464;29;20047;-80
2022/09/17 14:15:44;;;;;;;15.25;11.77;;;;;;;;;;4884521;29;20048;-76
2022/09/17 14:18:28;;;;;;;10.93;6.78;;;;;;;;;;4884635;29;20057;-78
2022/09/17 14:21:06;;;;;;;9.80;7.10;;;;;;;;;;4868785;29;20033;-77
2022/09/17 14:23:33;;;;;;;9.70;7.38;;;;;;;;;;4865088;29;20045;-78
2022/09/17 14:26:02;;;;;;;11.98;8.57;;;;;;;;;;4885158;29;20036;-72
2022/09/17 14:28:44;;;;;;;15.43;9.80;;;;;;;;;;4887900;29;20029;-75
2022/09/17 14:31:16;;;;;;;10.90;8.85;;;;;;;;;;4965862;28;20030;-76
2022/09/17 14:34:03;;;;;;;14.52;9.90;;;;;;;;;;4967500;28;20564;-76
2022/09/17 14:36:32;;;;;;;11.13;8.35;;;;;;;;;;4970301;28;20027;-77
2022/09/17 14:38:58;;;;;;;13.18;8.65;;;;;;;;;;4960424;29;20030;-74
2022/09/17 14:41:33;;;;;;;11.63;7.53;;;;;;;;;;4968017;28;20027;-78
2022/09/17 14:44:05;;;;;;;13.60;8.40;;;;;;;;;;4944726;29;20043;-77
2022/09/17 14:46:50;;;;;;;17.05;10.25;;;;;;;;;;4951271;28;20062;-78
2022/09/17 14:49:35;;;;;;;14.25;9.93;;;;;;;;;;4962398;28;20031;-77
2022/09/17 14:52:17;;;;;;;13.52;10.05;;;;;;;;;;4968913;29;20012;-77
2022/09/17 15:08:56;;;;;;;7.88;5.38;;;;;;;;;;4997857;28;20051;-78
2022/09/17 15:11:24;;;;;;;6.45;4.70;;;;;;;;;;4975457;28;20492;-77
2022/09/17 15:13:59;;;;;;;6.32;5.00;;;;;;;;;;5132460;23;20050;-79
2022/09/17 15:16:35;;;;;;;9.55;5.57;;;;;;;;;;4994674;28;20027;-79
2022/09/17 15:19:06;;;;;;;8.63;5.93;;;;;;;;;;5001301;28;20023;-80
2022/09/17 15:21:42;;;;;;;9.35;5.60;;;;;;;;;;4993353;28;20049;-79
2022/09/17 15:24:20;;;;;;;7.43;5.43;;;;;;;;;;4983779;28;20042;-79
2022/09/17 15:27:04;;;;;;;10.15;5.85;;;;;;;;;;4958404;28;20047;-80
2022/09/17 15:30:06;;;;;;;8.48;5.72;;;;;;;;;;4981168;28;20019;-81
2022/09/17 15:32:37;;;;;;;10.73;6.75;;;;;;;;;;4997912;28;20029;-79
2022/09/17 15:35:55;;;;;;;8.93;6.47;;;;;;;;;;5088706;23;20048;-78
2022/09/17 15:38:44;;;;;;;11.38;7.47;;;;;;;;;;5396853;23;20081;-76
2022/09/17 15:41:16;;;;;;;12.35;8.00;;;;;;;;;;4997383;28;20435;-76
2022/09/17 15:43:43;;;;;;;12.20;8.20;;;;;;;;;;4985501;28;20384;-77
2022/09/17 15:46:23;;;;;;;13.15;8.30;;;;;;;;;;5010981;28;20033;-76
2022/09/17 15:48:49;;;;;;;9.73;7.40;;;;;;;;;;4990066;28;20054;-75
2022/09/17 15:51:33;;;;;;;9.85;7.80;;;;;;;;;;4982893;28;20037;-79
2022/09/17 15:54:00;;;;;;;10.20;6.45;;;;;;;;;;5003447;28;20081;-78
2022/09/17 15:56:44;;;;;;;11.85;8.02;;;;;;;;;;4995995;28;20033;-76
2022/09/17 15:59:32;;;;;;;9.60;7.40;;;;;;;;;;4992744;28;20366;-76
2022/09/17 16:02:02;;;;;;;12.45;7.97;;;;;;;;;;4987638;28;20484;-76
2022/09/17 16:04:35;;;;;;;12.52;8.77;;;;;;;;;;5006879;28;20034;-76
2022/09/17 16:10:12;;;;;;;10.43;8.43;;;;;;;;;;4997621;28;20033;-79
2022/09/17 16:13:01;;;;;;;11.73;8.88;;;;;;;;;;4981464;28;20030;-76
2022/09/17 16:16:01;;;;;;;12.30;8.25;;;;;;;;;;4980332;28;20047;-78
2022/09/17 16:24:16;;;;;;;12.57;8.32;;;;;;;;;;5621858;23;20063;-79
2022/09/17 16:26:43;;;;;;;12.88;8.35;;;;;;;;;;4969483;28;20050;-76
2022/09/17 16:29:14;;;;;;;12.57;7.50;;;;;;;;;;4978335;28;20027;-75
2022/09/17 16:31:43;;;;;;;12.40;7.18;;;;;;;;;;4986165;28;20389;-77
2022/09/17 16:34:14;;;;;;;12.75;7.10;;;;;;;;;;4965142;28;20066;-80